Time;durP1;ratioP1;P1;durP2;ratioP2;P2;SDS_P1;SDS_P2;PMS_P1;PMS_P2;Temp;Humidity;BMP_temperature;BMP_pressure;BME280_temperature;BME280_humidity;BME280_pressure;Samples;Min_cycle;Max_cycle;Signal;HPM_P1;HPM_P2
2023/04/29 04:00:55;;;;;;;0.60;0.10;;;14.70;99.90;;;;;;5668482;23;20549;-73
2023/04/29 04:03:24;;;;;;;0.60;0.10;;;14.60;99.90;;;;;;4915103;29;20459;-71
2023/04/29 04:05:52;;;;;;;0.60;0.10;;;14.60;99.90;;;;;;4919382;29;20480;-71
2023/04/29 04:08:20;;;;;;;0.60;0.20;;;14.60;99.90;;;;;;4918920;29;20459;-72
2023/04/29 04:10:48;;;;;;;0.60;0.10;;;14.50;99.90;;;;;;4914477;29;20493;-72
2023/04/29 04:13:16;;;;;;;0.60;0.10;;;14.40;99.90;;;;;;4900781;29;20456;-72
2023/04/29 04:15:49;;;;;;;0.60;0.10;;;14.40;99.90;;;;;;4900020;29;20457;-71
2023/04/29 04:18:19;;;;;;;0.60;0.10;;;14.40;99.90;;;;;;4900801;29;20438;-71
2023/04/29 04:20:47;;;;;;;1.37;1.10;;;14.40;99.90;;;;;;4899954;29;20470;-71
2023/04/29 04:23:15;;;;;;;0.60;0.10;;;14.30;99.90;;;;;;4900432;29;20809;-71
2023/04/29 04:25:45;;;;;;;0.60;0.10;;;14.30;99.90;;;;;;4900792;29;20493;-71
2023/04/29 04:28:13;;;;;;;0.60;0.10;;;14.30;99.90;;;;;;4899688;29;20450;-71
2023/04/29 04:30:41;;;;;;;0.60;0.10;;;14.30;99.90;;;;;;4897488;29;20499;-72
2023/04/29 04:33:09;;;;;;;0.60;0.10;;;14.20;99.90;;;;;;4901117;29;20461;-71
2023/04/29 04:35:38;;;;;;;0.60;0.30;;;14.20;99.90;;;;;;4903269;29;20448;-71
2023/04/29 04:38:06;;;;;;;0.60;0.10;;;14.20;99.90;;;;;;4900052;29;20454;-71
2023/04/29 04:40:34;;;;;;;0.60;0.20;;;14.20;99.90;;;;;;4900142;29;20487;-71
2023/04/29 04:43:02;;;;;;;0.60;0.10;;;14.20;99.90;;;;;;4900129;29;20454;-71
2023/04/29 04:45:30;;;;;;;0.60;0.10;;;14.10;99.90;;;;;;4899358;29;20491;-71
2023/04/29 04:47:58;;;;;;;0.60;0.10;;;14.10;99.90;;;;;;4899669;29;20454;-71
2023/04/29 04:50:27;;;;;;;1.07;0.80;;;14.10;99.90;;;;;;4898513;29;20524;-71
2023/04/29 04:52:57;;;;;;;0.60;0.10;;;14.10;99.90;;;;;;4899548;29;20459;-71
2023/04/29 04:55:25;;;;;;;0.60;0.10;;;14.10;99.90;;;;;;4899462;29;20447;-71
2023/04/29 04:57:53;;;;;;;0.60;0.10;;;14.20;99.90;;;;;;4899544;29;20453;-71
2023/04/29 05:00:20;;;;;;;0.60;0.10;;;14.20;99.90;;;;;;4899297;29;20465;-71
2023/04/29 05:02:48;;;;;;;0.60;0.10;;;14.20;99.90;;;;;;4899349;29;20511;-71
2023/04/29 05:05:16;;;;;;;0.60;0.10;;;14.30;99.90;;;;;;4898937;29;20493;-71
2023/04/29 05:07:44;;;;;;;0.60;0.10;;;14.30;99.90;;;;;;4899414;29;20460;-71
2023/04/29 05:10:14;;;;;;;0.60;0.10;;;;;;;;;;4899556;29;20450;-70
2023/04/29 05:12:41;;;;;;;0.60;0.10;;;14.30;99.90;;;;;;4898975;29;20978;-71
2023/04/29 05:15:10;;;;;;;0.60;0.10;;;14.30;99.90;;;;;;4889744;29;20465;-71
2023/04/29 05:17:37;;;;;;;0.80;0.30;;;14.40;99.90;;;;;;4893074;29;20922;-71
2023/04/29 05:20:07;;;;;;;0.60;0.20;;;14.40;99.90;;;;;;4898549;29;20967;-71
2023/04/29 05:22:35;;;;;;;0.60;0.10;;;14.30;99.90;;;;;;4897243;29;20482;-71
2023/04/29 05:25:02;;;;;;;0.60;0.10;;;14.40;99.90;;;;;;4890634;29;20487;-71
2023/04/29 05:27:32;;;;;;;0.60;0.10;;;14.40;99.90;;;;;;4897960;29;20441;-71
2023/04/29 05:30:00;;;;;;;0.60;0.23;;;14.50;99.90;;;;;;4895592;29;20461;-71
2023/04/29 05:32:28;;;;;;;0.60;0.10;;;14.50;99.90;;;;;;4898045;29;20482;-74
2023/04/29 05:34:56;;;;;;;0.60;0.10;;;14.50;99.90;;;;;;4888919;29;20602;-72
2023/04/29 05:37:29;;;;;;;0.60;0.10;;;14.50;99.90;;;;;;4897941;29;20489;-70
2023/04/29 05:39:57;;;;;;;0.60;0.10;;;14.50;99.90;;;;;;4898125;29;20447;-72
2023/04/29 05:42:25;;;;;;;0.70;0.57;;;14.50;99.90;;;;;;4898240;29;20520;-72
2023/04/29 05:44:54;;;;;;;0.60;0.10;;;14.40;99.90;;;;;;4889267;29;20832;-73
2023/04/29 05:47:22;;;;;;;1.60;0.90;;;14.50;99.90;;;;;;4893847;29;20958;-72
2023/04/29 05:49:50;;;;;;;0.60;0.10;;;14.40;99.90;;;;;;4898314;29;20457;-74
2023/04/29 05:52:18;;;;;;;0.60;0.10;;;14.30;99.90;;;;;;4892778;29;20482;-74
2023/04/29 05:54:46;;;;;;;1.03;0.57;;;14.30;99.90;;;;;;4894276;29;20442;-74
2023/04/29 05:57:14;;;;;;;0.60;0.10;;;14.30;99.90;;;;;;4898301;29;20462;-74
2023/04/29 05:59:42;;;;;;;0.60;0.10;;;14.30;99.90;;;;;;4899556;29;20455;-73
2023/04/29 06:02:11;;;;;;;0.60;0.20;;;14.30;99.90;;;;;;4891106;29;20496;-74
2023/04/29 06:04:39;;;;;;;0.60;0.10;;;14.30;99.90;;;;;;4893369;29;20450;-75
2023/04/29 06:07:09;;;;;;;0.80;0.67;;;;;;;;;;4889983;29;20489;-71
2023/04/29 06:09:37;;;;;;;0.60;0.30;;;14.40;99.90;;;;;;4889571;29;20443;-73
2023/04/29 06:12:05;;;;;;;0.60;0.10;;;12.80;99.90;;;;;;4886510;29;20469;-71
2023/04/29 06:14:33;;;;;;;0.60;0.10;;;14.40;99.90;;;;;;4886549;29;20470;-75
2023/04/29 06:17:02;;;;;;;0.60;0.10;;;14.40;99.90;;;;;;4894989;29;20523;-74
2023/04/29 06:19:32;;;;;;;4.53;1.83;;;14.40;99.90;;;;;;4897050;29;20472;-75
2023/04/29 06:22:00;;;;;;;0.60;0.10;;;14.40;99.90;;;;;;4897853;29;20490;-74
2023/04/29 06:24:28;;;;;;;0.80;0.63;;;14.30;99.90;;;;;;4897402;29;20806;-73
2023/04/29 06:26:56;;;;;;;0.60;0.50;;;14.40;99.90;;;;;;4897469;29;20485;-73
2023/04/29 06:29:24;;;;;;;0.60;0.10;;;14.30;99.90;;;;;;4897068;29;20450;-73
2023/04/29 06:31:52;;;;;;;0.60;0.10;;;14.30;99.90;;;;;;4897049;29;20470;-75
2023/04/29 06:34:19;;;;;;;0.77;0.20;;;14.40;99.90;;;;;;4897624;29;20461;-73
2023/04/29 06:36:48;;;;;;;1.37;0.93;;;14.40;99.90;;;;;;4897377;29;20454;-73
2023/04/29 06:39:17;;;;;;;1.00;0.50;;;14.40;99.90;;;;;;4897434;29;20454;-75
2023/04/29 06:41:44;;;;;;;0.60;0.10;;;14.50;99.90;;;;;;4883056;29;20467;-73
2023/04/29 06:44:12;;;;;;;0.60;0.10;;;14.50;99.90;;;;;;4878747;29;20518;-74
2023/04/29 06:46:40;;;;;;;0.60;0.10;;;14.60;99.90;;;;;;4883089;29;20810;-74
2023/04/29 06:49:08;;;;;;;0.60;0.20;;;14.60;99.90;;;;;;4878543;29;20511;-73
2023/04/29 06:51:37;;;;;;;0.60;0.10;;;14.60;99.90;;;;;;4878976;29;20835;-73
2023/04/29 06:54:07;;;;;;;2.40;2.23;;;14.60;99.90;;;;;;4890894;29;20963;-74
2023/04/29 06:56:35;;;;;;;0.70;0.30;;;14.60;99.90;;;;;;4897739;29;20527;-74
2023/04/29 06:59:03;;;;;;;0.60;0.10;;;14.70;99.90;;;;;;4899671;29;20449;-75
2023/04/29 07:01:31;;;;;;;0.60;0.10;;;14.80;99.90;;;;;;4905846;29;20484;-75
2023/04/29 07:03:59;;;;;;;0.60;0.10;;;;;;;;;;4896440;29;20509;-74
2023/04/29 07:06:29;;;;;;;0.60;0.10;;;14.80;99.90;;;;;;4882783;29;20690;-74
2023/04/29 07:08:57;;;;;;;2.13;1.20;;;14.80;99.90;;;;;;4889574;29;20444;-75
2023/04/29 07:11:27;;;;;;;0.60;0.10;;;14.70;99.90;;;;;;4892294;29;20482;-76
2023/04/29 07:13:55;;;;;;;0.60;0.13;;;14.70;99.90;;;;;;4891206;29;20449;-76
2023/04/29 07:16:25;;;;;;;0.60;0.10;;;14.70;99.90;;;;;;4892857;29;20451;-74
2023/04/29 07:18:53;;;;;;;0.60;0.10;;;14.80;99.90;;;;;;4887690;29;20442;-75
2023/04/29 07:21:21;;;;;;;0.60;0.10;;;14.80;99.90;;;;;;4880525;29;20889;-75
2023/04/29 07:23:49;;;;;;;0.60;0.10;;;;;;;;;;4880270;29;20513;-76
2023/04/29 07:26:18;;;;;;;0.60;0.10;;;14.80;99.90;;;;;;4880613;29;20550;-75
2023/04/29 07:28:48;;;;;;;0.60;0.20;;;14.80;99.90;;;;;;4892578;29;20519;-74
2023/04/29 07:31:16;;;;;;;2.97;2.77;;;14.70;99.90;;;;;;4898290;29;20558;-74
2023/04/29 07:33:45;;;;;;;1.00;0.80;;;14.70;99.90;;;;;;4899482;29;20610;-75
2023/04/29 07:36:13;;;;;;;0.60;0.10;;;14.60;99.90;;;;;;4900413;29;20450;-75
2023/04/29 07:38:41;;;;;;;0.60;0.10;;;14.60;99.90;;;;;;4905319;29;21029;-74
2023/04/29 07:41:08;;;;;;;0.60;0.20;;;14.60;99.90;;;;;;4906333;29;20469;-74
2023/04/29 07:43:39;;;;;;;0.60;0.10;;;14.60;99.90;;;;;;4905967;29;20465;-75
2023/04/29 07:46:11;;;;;;;0.60;0.10;;;;;;;;;;4891931;29;20453;-75
2023/04/29 07:48:39;;;;;;;0.60;0.10;;;14.70;99.90;;;;;;4905904;29;20445;-76
2023/04/29 07:51:12;;;;;;;0.60;0.10;;;14.70;99.90;;;;;;4906010;29;20987;-76
2023/04/29 07:53:40;;;;;;;0.60;0.13;;;14.60;99.90;;;;;;4906131;29;20456;-75
2023/04/29 07:56:09;;;;;;;0.60;0.10;;;14.50;99.90;;;;;;4904919;29;20454;-75
2023/04/29 07:58:36;;;;;;;0.60;0.10;;;14.50;99.90;;;;;;4905503;29;20453;-76
2023/04/29 08:01:10;;;;;;;0.60;0.20;;;14.50;99.90;;;;;;4904954;29;20639;-76
2023/04/29 08:03:41;;;;;;;2.40;2.30;;;14.50;99.90;;;;;;4903104;29;20448;-76
2023/04/29 08:06:09;;;;;;;0.60;0.10;;;14.50;99.90;;;;;;4900271;29;20804;-76
2023/04/29 08:08:37;;;;;;;0.60;0.30;;;14.50;99.90;;;;;;4902082;29;20472;-74
2023/04/29 08:11:06;;;;;;;0.60;0.10;;;;;;;;;;4900397;29;20480;-75
2023/04/29 08:13:34;;;;;;;0.60;0.10;;;14.50;99.90;;;;;;4898636;29;20877;-75
2023/04/29 08:16:01;;;;;;;0.60;0.10;;;14.50;99.90;;;;;;4902244;29;20457;-75
2023/04/29 08:18:35;;;;;;;0.60;0.10;;;14.50;99.90;;;;;;4907176;29;20453;-75
2023/04/29 08:21:06;;;;;;;0.60;0.10;;;14.40;99.90;;;;;;4911928;29;20474;-76
2023/04/29 08:23:34;;;;;;;0.70;0.40;;;14.40;99.90;;;;;;4907173;29;20794;-75
2023/04/29 08:26:02;;;;;;;0.60;0.20;;;14.50;99.90;;;;;;4905927;29;20457;-74
2023/04/29 08:28:30;;;;;;;1.27;0.80;;;14.50;99.90;;;;;;4902962;29;20991;-76
2023/04/29 08:30:59;;;;;;;0.60;0.10;;;14.50;99.90;;;;;;4901486;29;20545;-75
2023/04/29 08:33:27;;;;;;;0.60;0.10;;;14.60;99.90;;;;;;4905979;29;20452;-75
2023/04/29 08:36:03;;;;;;;0.60;0.10;;;14.60;99.90;;;;;;4906495;29;20466;-75
2023/04/29 08:38:33;;;;;;;0.60;0.10;;;14.70;99.90;;;;;;4908044;29;20450;-76
2023/04/29 08:41:02;;;;;;;0.60;0.20;;;;;;;;;;4908144;29;20456;-75
2023/04/29 08:43:34;;;;;;;0.60;0.10;;;;;;;;;;4902200;29;20469;-77
2023/04/29 08:46:03;;;;;;;0.60;0.10;;;11.20;99.90;;;;;;4900797;29;20464;-75
2023/04/29 08:48:32;;;;;;;0.60;0.10;;;14.60;99.90;;;;;;4893791;29;21053;-76
2023/04/29 08:51:02;;;;;;;0.60;0.10;;;14.60;99.90;;;;;;4895285;29;20837;-76
2023/04/29 08:53:30;;;;;;;0.60;0.17;;;14.60;99.90;;;;;;4905909;29;20499;-75
2023/04/29 08:56:03;;;;;;;0.60;0.20;;;14.60;99.90;;;;;;4902569;29;20474;-77
2023/04/29 08:58:35;;;;;;;0.60;0.10;;;14.70;99.90;;;;;;4902731;29;20441;-75
2023/04/29 09:01:08;;;;;;;1.03;0.77;;;14.60;99.90;;;;;;4903554;29;21064;-76
2023/04/29 09:03:47;;;;;;;0.70;0.53;;;14.40;99.90;;;;;;4902114;29;20533;-77
2023/04/29 09:06:20;;;;;;;0.60;0.20;;;14.30;99.90;;;;;;4903825;29;20455;-77
2023/04/29 09:08:56;;;;;;;0.60;0.20;;;;;;;;;;4895757;29;20573;-78
2023/04/29 09:11:29;;;;;;;0.60;0.20;;;;;;;;;;4889117;29;20548;-76
2023/04/29 09:14:03;;;;;;;1.33;1.23;;;;;;;;;;4884914;29;20461;-76
2023/04/29 09:16:31;;;;;;;0.60;0.10;;;14.10;99.90;;;;;;4882559;29;21017;-76
2023/04/29 09:21:58;;;;;;;0.70;0.50;;;;;;;;;;4898702;29;20480;-76
2023/04/29 09:24:29;;;;;;;1.20;1.10;;;;;;;;;;4902774;29;20452;-74
2023/04/29 09:27:04;;;;;;;0.60;0.20;;;;;;;;;;4901605;29;20456;-79
2023/04/29 09:29:35;;;;;;;0.60;0.10;;;;;;;;;;4896781;29;20447;-76
2023/04/29 09:32:19;;;;;;;0.60;0.10;;;14.50;99.90;;;;;;4893411;29;20464;-75
2023/04/29 09:34:53;;;;;;;0.77;0.77;;;;;;;;;;4905373;29;20955;-76
2023/04/29 09:37:28;;;;;;;0.83;0.57;;;14.20;99.90;;;;;;4904831;29;20456;-75
2023/04/29 09:40:01;;;;;;;0.60;0.20;;;;;;;;;;4895943;29;20452;-78
2023/04/29 09:42:43;;;;;;;1.77;0.30;;;;;;;;;;4897419;29;20470;-74
2023/04/29 09:45:13;;;;;;;0.67;0.40;;;14.20;99.90;;;;;;4887878;29;20444;-75
2023/04/29 09:47:42;;;;;;;1.17;0.30;;;14.00;99.90;;;;;;4886045;29;20484;-76
2023/04/29 09:50:15;;;;;;;2.07;0.63;;;13.90;99.90;;;;;;4888152;29;20571;-75
2023/04/29 09:52:48;;;;;;;0.90;0.77;;;;;;;;;;4917630;29;20455;-75
2023/04/29 09:55:21;;;;;;;2.93;1.50;;;;;;;;;;4890408;29;20453;-75
2023/04/29 09:57:51;;;;;;;0.70;0.30;;;13.80;99.90;;;;;;4901335;29;20472;-75
2023/04/29 10:00:21;;;;;;;2.70;0.83;;;13.80;99.90;;;;;;4898345;29;20460;-76
2023/04/29 10:02:56;;;;;;;0.60;0.20;;;13.90;99.90;;;;;;4897330;29;20456;-77
2023/04/29 10:05:31;;;;;;;1.70;0.30;;;13.90;99.90;;;;;;4884093;29;20438;-76
2023/04/29 10:08:03;;;;;;;0.70;0.20;;;14.00;99.90;;;;;;4883803;29;20493;-76
2023/04/29 10:10:34;;;;;;;0.90;0.27;;;14.10;99.90;;;;;;4892594;29;20896;-75
2023/04/29 10:13:05;;;;;;;0.60;0.10;;;14.00;99.90;;;;;;4899819;29;20509;-77
2023/04/29 10:15:41;;;;;;;0.60;0.10;;;14.10;99.90;;;;;;4900498;29;20996;-78
2023/04/29 10:18:14;;;;;;;0.60;0.10;;;;;;;;;;4895011;29;20447;-74
2023/04/29 10:20:49;;;;;;;2.83;2.43;;;;;;;;;;4893807;29;20562;-76
2023/04/29 10:23:24;;;;;;;0.60;0.10;;;14.20;99.90;;;;;;4903521;29;20523;-76
2023/04/29 10:25:53;;;;;;;0.93;0.20;;;14.20;99.90;;;;;;4905773;29;20453;-76
2023/04/29 10:28:31;;;;;;;0.60;0.10;;;14.20;99.90;;;;;;4901574;29;20487;-74
2023/04/29 10:31:06;;;;;;;0.60;0.20;;;14.30;99.90;;;;;;4896314;29;20484;-77
2023/04/29 10:33:36;;;;;;;3.03;0.93;;;14.30;99.90;;;;;;4920273;23;20923;-75
2023/04/29 10:36:05;;;;;;;0.60;0.10;;;14.50;99.90;;;;;;4912615;29;20453;-74
2023/04/29 10:38:40;;;;;;;0.60;0.10;;;14.50;99.90;;;;;;4916867;29;20450;-74
2023/04/29 10:41:14;;;;;;;0.60;0.10;;;14.50;99.90;;;;;;4918116;29;20458;-75
2023/04/29 10:43:42;;;;;;;0.60;0.13;;;14.50;99.90;;;;;;4918240;29;20470;-74
2023/04/29 10:46:28;;;;;;;0.60;0.10;;;14.50;99.90;;;;;;4917695;29;20457;-74
2023/04/29 10:48:59;;;;;;;0.60;0.10;;;14.50;99.90;;;;;;4912716;29;20481;-74
2023/04/29 10:51:32;;;;;;;0.60;0.10;;;14.60;99.90;;;;;;4916646;29;20457;-74
2023/04/29 10:54:07;;;;;;;0.60;0.10;;;14.60;99.90;;;;;;4915849;29;20480;-74
2023/04/29 10:56:40;;;;;;;0.60;0.30;;;14.70;99.90;;;;;;4917904;29;20449;-75
2023/04/29 10:59:13;;;;;;;0.60;0.10;;;14.90;99.90;;;;;;4917604;29;20922;-75
2023/04/29 11:01:46;;;;;;;1.03;0.50;;;15.00;99.90;;;;;;4917518;29;20462;-74
2023/04/29 11:04:14;;;;;;;0.60;0.10;;;15.00;99.90;;;;;;4902026;29;20475;-74
2023/04/29 11:06:46;;;;;;;0.60;0.10;;;15.10;99.90;;;;;;4898410;29;20441;-74
2023/04/29 11:09:20;;;;;;;0.60;0.10;;;14.90;99.90;;;;;;4905151;29;20519;-75
2023/04/29 11:11:56;;;;;;;0.80;0.30;;;14.80;99.90;;;;;;4915825;29;20494;-73
2023/04/29 11:14:26;;;;;;;0.60;0.13;;;14.80;99.90;;;;;;4925071;29;20983;-74
2023/04/29 11:16:58;;;;;;;1.07;0.53;;;14.90;99.90;;;;;;4909667;29;20454;-74
2023/04/29 11:19:31;;;;;;;0.60;0.20;;;14.80;99.90;;;;;;4899571;29;20442;-74
2023/04/29 11:22:12;;;;;;;1.03;0.93;;;14.80;99.90;;;;;;4898284;29;20941;-74
2023/04/29 11:24:53;;;;;;;1.33;0.70;;;14.90;99.90;;;;;;4897858;29;21034;-75
2023/04/29 11:27:25;;;;;;;0.60;0.20;;;14.90;99.90;;;;;;4907147;29;20942;-74
2023/04/29 11:29:57;;;;;;;0.60;0.10;;;;;;;;;;4918865;29;20491;-74
2023/04/29 11:32:25;;;;;;;0.60;0.10;;;15.00;99.90;;;;;;4919337;29;20507;-74
2023/04/29 11:34:53;;;;;;;0.60;0.10;;;15.10;99.90;;;;;;4905246;29;20476;-74
2023/04/29 11:37:24;;;;;;;0.60;0.10;;;15.00;99.90;;;;;;4905134;29;20553;-75
2023/04/29 11:39:59;;;;;;;0.60;0.10;;;15.10;99.90;;;;;;4922589;29;20529;-75
2023/04/29 11:42:27;;;;;;;0.60;0.10;;;15.20;99.90;;;;;;4913813;29;20455;-74
2023/04/29 11:44:58;;;;;;;0.60;0.10;;;15.30;99.90;;;;;;4925501;29;20467;-75
2023/04/29 11:47:28;;;;;;;1.63;0.77;;;15.30;99.90;;;;;;4924180;29;20525;-75
2023/04/29 11:50:03;;;;;;;0.60;0.10;;;15.30;99.90;;;;;;4925285;29;21011;-74
2023/04/29 11:52:32;;;;;;;0.60;0.10;;;15.40;99.90;;;;;;4924724;29;20438;-74
2023/04/29 11:55:02;;;;;;;0.60;0.10;;;15.40;99.90;;;;;;4921485;29;20561;-74
2023/04/29 11:57:30;;;;;;;0.60;0.10;;;17.70;99.90;;;;;;4925845;29;20832;-74
2023/04/29 11:59:58;;;;;;;0.60;0.20;;;;;;;;;;4922133;29;20505;-74
2023/04/29 12:02:30;;;;;;;1.10;0.97;;;15.40;99.90;;;;;;4918512;29;20545;-77
2023/04/29 12:04:59;;;;;;;0.60;0.10;;;15.40;99.90;;;;;;4917972;29;20545;-74
2023/04/29 12:07:28;;;;;;;0.60;0.20;;;15.20;99.90;;;;;;4904860;29;20451;-74
2023/04/29 12:09:56;;;;;;;1.40;0.53;;;15.10;99.90;;;;;;4898865;29;20481;-75
2023/04/29 12:12:27;;;;;;;0.60;0.10;;;;;;;;;;4906051;29;20487;-77
2023/04/29 12:14:55;;;;;;;0.60;0.10;;;15.10;99.90;;;;;;4916357;29;20505;-75
2023/04/29 12:17:24;;;;;;;0.60;0.10;;;15.20;99.90;;;;;;4912664;29;20454;-75
2023/04/29 12:19:52;;;;;;;0.60;0.10;;;15.30;99.90;;;;;;4905908;29;20506;-75
2023/04/29 12:22:20;;;;;;;0.60;0.10;;;15.40;99.90;;;;;;4916716;29;20466;-75
2023/04/29 12:24:49;;;;;;;0.60;0.10;;;15.40;99.90;;;;;;4920793;29;20473;-75
2023/04/29 12:27:17;;;;;;;0.60;0.10;;;15.40;99.90;;;;;;4921338;29;20457;-76
2023/04/29 12:29:46;;;;;;;0.60;0.10;;;15.50;99.90;;;;;;4913878;29;20573;-75
2023/04/29 12:32:17;;;;;;;0.60;0.10;;;15.50;99.90;;;;;;4901106;29;20455;-74
2023/04/29 12:34:46;;;;;;;0.60;0.10;;;15.60;99.90;;;;;;4907482;29;20849;-74
2023/04/29 12:37:15;;;;;;;0.60;0.10;;;15.60;99.90;;;;;;4912238;29;20456;-75
2023/04/29 12:39:43;;;;;;;0.60;0.10;;;15.60;99.90;;;;;;4920774;29;20443;-75
2023/04/29 12:42:16;;;;;;;0.60;0.10;;;15.60;99.90;;;;;;4920114;29;20461;-75
2023/04/29 12:44:47;;;;;;;0.60;0.10;;;15.60;99.90;;;;;;4915103;29;20476;-75
2023/04/29 12:47:15;;;;;;;0.60;0.10;;;;;;;;;;4903535;29;20507;-75
2023/04/29 12:49:45;;;;;;;0.60;0.10;;;15.70;99.90;;;;;;4920027;29;21007;-75
2023/04/29 12:52:14;;;;;;;0.60;0.10;;;15.80;99.90;;;;;;4914915;29;20454;-74
2023/04/29 12:54:42;;;;;;;0.60;0.10;;;15.80;99.90;;;;;;4921992;29;20495;-74
2023/04/29 12:57:11;;;;;;;0.80;0.63;;;15.90;99.90;;;;;;4922623;29;20503;-74
2023/04/29 12:59:39;;;;;;;0.60;0.10;;;15.90;99.90;;;;;;4918306;29;20516;-74
2023/04/29 13:02:09;;;;;;;0.60;0.10;;;15.90;99.90;;;;;;4905833;29;20540;-74
2023/04/29 13:04:37;;;;;;;0.60;0.10;;;15.90;99.90;;;;;;4916118;29;20500;-74
2023/04/29 13:07:07;;;;;;;0.80;0.33;;;16.00;99.90;;;;;;4917724;29;20478;-75
2023/04/29 13:09:36;;;;;;;0.60;0.10;;;16.00;99.90;;;;;;4921530;29;20490;-73
2023/04/29 13:12:08;;;;;;;0.60;0.10;;;16.00;99.90;;;;;;4918789;29;20441;-74
2023/04/29 13:14:36;;;;;;;0.60;0.10;;;16.10;99.90;;;;;;4917924;29;20470;-74
2023/04/29 13:17:05;;;;;;;0.60;0.10;;;16.10;99.90;;;;;;4903511;29;20455;-75
2023/04/29 13:19:34;;;;;;;0.60;0.10;;;16.10;99.90;;;;;;4904415;29;20483;-74
2023/04/29 13:22:06;;;;;;;0.60;0.10;;;16.10;99.90;;;;;;4914978;29;20466;-74
2023/04/29 13:24:35;;;;;;;0.60;0.10;;;16.10;99.90;;;;;;4915966;29;20519;-75
2023/04/29 13:27:03;;;;;;;0.70;0.53;;;16.00;99.90;;;;;;4901894;29;20461;-74
2023/04/29 13:29:31;;;;;;;0.60;0.10;;;16.00;99.90;;;;;;4907505;29;20487;-74
2023/04/29 13:31:59;;;;;;;0.60;0.10;;;15.90;99.90;;;;;;4910134;29;20516;-75
2023/04/29 13:34:27;;;;;;;1.20;0.60;;;15.90;99.90;;;;;;4909644;29;20474;-75
2023/04/29 13:36:57;;;;;;;0.60;0.10;;;15.90;99.90;;;;;;4905043;29;20485;-75
2023/04/29 13:39:24;;;;;;;1.20;0.40;;;15.90;99.90;;;;;;4915292;29;20445;-73
2023/04/29 13:41:52;;;;;;;0.60;0.20;;;15.80;99.90;;;;;;4919023;29;20457;-74
2023/04/29 13:44:26;;;;;;;0.60;0.10;;;15.80;99.90;;;;;;4911033;29;20514;-74
2023/04/29 13:47:13;;;;;;;0.60;0.10;;;15.80;99.90;;;;;;4924721;29;20492;-75
2023/04/29 13:49:43;;;;;;;0.60;0.10;;;15.80;99.90;;;;;;4923343;29;21025;-74
2023/04/29 13:52:32;;;;;;;0.60;0.10;;;15.90;99.90;;;;;;4924464;29;20519;-74
2023/04/29 13:55:03;;;;;;;0.60;0.30;;;15.90;99.90;;;;;;4924430;29;20472;-74
2023/04/29 13:57:52;;;;;;;0.60;0.23;;;16.00;99.90;;;;;;4909382;29;20541;-74
2023/04/29 14:00:40;;;;;;;0.60;0.10;;;16.00;99.90;;;;;;4919145;29;20455;-74
2023/04/29 14:03:11;;;;;;;0.60;0.10;;;16.00;99.90;;;;;;4918796;29;20795;-75
2023/04/29 14:05:39;;;;;;;1.77;1.47;;;16.10;99.90;;;;;;4911228;29;20479;-74
2023/04/29 14:08:08;;;;;;;0.60;0.10;;;16.10;99.90;;;;;;4912301;29;20453;-75
2023/04/29 14:10:36;;;;;;;0.60;0.10;;;;;;;;;;4929840;29;20483;-74
2023/04/29 14:13:05;;;;;;;0.60;0.10;;;16.20;99.90;;;;;;4932983;29;20568;-74
2023/04/29 14:15:33;;;;;;;0.60;0.10;;;16.20;99.90;;;;;;4930641;29;21042;-74
2023/04/29 14:18:01;;;;;;;0.60;0.10;;;16.10;99.90;;;;;;4929435;29;20462;-74
2023/04/29 14:20:29;;;;;;;0.60;0.30;;;16.10;99.90;;;;;;4918495;29;20441;-75
2023/04/29 14:22:57;;;;;;;0.60;0.20;;;16.10;99.90;;;;;;4928284;29;20455;-74
2023/04/29 14:25:26;;;;;;;0.83;0.80;;;16.10;99.90;;;;;;4932180;29;20473;-76
2023/04/29 14:27:56;;;;;;;0.60;0.10;;;16.10;99.90;;;;;;4920017;29;20465;-75
2023/04/29 14:30:24;;;;;;;0.60;0.20;;;16.00;99.90;;;;;;4913028;29;20555;-74
2023/04/29 14:32:52;;;;;;;0.60;0.20;;;16.00;99.90;;;;;;4916112;29;20451;-75
2023/04/29 14:35:20;;;;;;;0.60;0.10;;;16.00;99.90;;;;;;4905933;29;20491;-75
2023/04/29 14:37:49;;;;;;;0.60;0.10;;;15.90;99.90;;;;;;4899562;29;20462;-74
2023/04/29 14:40:17;;;;;;;0.60;0.10;;;15.90;99.90;;;;;;4908061;29;20455;-75
2023/04/29 14:42:46;;;;;;;0.60;0.10;;;15.90;99.90;;;;;;4910611;29;20451;-75
2023/04/29 14:45:14;;;;;;;0.60;0.30;;;15.90;99.90;;;;;;4907403;29;20472;-75
2023/04/29 14:47:42;;;;;;;0.60;0.10;;;15.90;99.90;;;;;;4899852;29;20900;-75
2023/04/29 14:50:10;;;;;;;0.70;0.30;;;15.90;99.90;;;;;;4906814;29;20506;-75
2023/04/29 14:52:38;;;;;;;0.60;0.10;;;15.90;99.90;;;;;;4918603;29;20456;-75
2023/04/29 14:55:06;;;;;;;0.60;0.10;;;15.90;99.90;;;;;;4916513;29;20980;-74
2023/04/29 14:57:34;;;;;;;0.60;0.10;;;15.90;99.90;;;;;;4912238;29;20553;-76
2023/04/29 15:00:04;;;;;;;0.70;0.20;;;15.90;99.90;;;;;;4911430;29;20478;-75
2023/04/29 15:02:32;;;;;;;0.70;0.30;;;15.90;99.90;;;;;;4913413;29;20529;-75
2023/04/29 15:05:02;;;;;;;0.70;0.30;;;15.80;99.90;;;;;;4914489;29;20473;-75
2023/04/29 15:07:31;;;;;;;0.60;0.10;;;15.80;99.90;;;;;;4914221;29;20545;-74
2023/04/29 15:10:00;;;;;;;0.60;0.10;;;;;;;;;;4912201;29;20542;-74
2023/04/29 15:12:28;;;;;;;0.70;0.33;;;15.70;99.90;;;;;;4910936;29;20530;-75
2023/04/29 15:14:55;;;;;;;0.60;0.10;;;15.50;99.90;;;;;;4898894;29;20832;-75
2023/04/29 15:17:25;;;;;;;0.70;0.23;;;15.50;99.90;;;;;;4908052;29;20435;-75
2023/04/29 15:19:53;;;;;;;0.60;0.10;;;15.40;99.90;;;;;;4907048;29;20447;-75
2023/04/29 15:22:20;;;;;;;0.60;0.10;;;15.30;99.90;;;;;;4908476;29;20974;-75
2023/04/29 15:24:50;;;;;;;0.60;0.10;;;15.30;99.90;;;;;;4907806;29;20472;-74
2023/04/29 15:27:18;;;;;;;0.60;0.10;;;15.20;99.90;;;;;;4907284;29;20451;-73
2023/04/29 15:29:46;;;;;;;0.60;0.10;;;15.20;99.90;;;;;;4907878;29;20455;-75
2023/04/29 15:32:15;;;;;;;0.60;0.10;;;;;;;;;;4908495;29;20517;-74
2023/04/29 15:34:44;;;;;;;0.60;0.10;;;15.10;99.90;;;;;;4907919;29;20501;-74
2023/04/29 15:37:12;;;;;;;0.60;0.10;;;15.10;99.90;;;;;;4906620;29;20449;-74
2023/04/29 15:39:40;;;;;;;0.60;0.10;;;15.10;99.90;;;;;;4907260;29;20445;-74
2023/04/29 15:42:09;;;;;;;0.60;0.10;;;15.00;99.90;;;;;;4910707;29;20449;-74
2023/04/29 15:44:37;;;;;;;0.60;0.10;;;15.00;99.90;;;;;;4908388;29;20477;-75
2023/04/29 15:47:05;;;;;;;0.60;0.10;;;14.90;99.90;;;;;;4908319;29;20453;-75
2023/04/29 15:49:33;;;;;;;0.70;0.17;;;14.90;99.90;;;;;;4907587;29;20442;-75
2023/04/29 15:52:02;;;;;;;0.60;0.10;;;;;;;;;;4907135;29;20482;-75
2023/04/29 15:54:30;;;;;;;0.60;0.20;;;14.80;99.90;;;;;;4902134;29;20980;-74
2023/04/29 15:56:58;;;;;;;0.60;0.10;;;14.80;99.90;;;;;;4907433;29;20446;-75
2023/04/29 15:59:26;;;;;;;0.60;0.10;;;14.80;99.90;;;;;;4912169;29;20461;-74
2023/04/29 16:01:54;;;;;;;0.70;0.43;;;14.80;99.90;;;;;;4909713;29;20455;-75
2023/04/29 16:04:22;;;;;;;0.70;0.40;;;14.70;99.90;;;;;;4904329;29;20481;-75
2023/04/29 16:06:51;;;;;;;0.60;0.10;;;14.70;99.90;;;;;;4910792;29;20513;-75
2023/04/29 16:09:21;;;;;;;0.60;0.13;;;11.60;99.90;;;;;;4910383;29;20946;-75
2023/04/29 16:11:51;;;;;;;0.60;0.10;;;14.60;99.90;;;;;;4913522;29;20516;-75
2023/04/29 16:14:19;;;;;;;1.03;0.93;;;14.60;99.90;;;;;;4917782;29;20526;-75
2023/04/29 16:16:47;;;;;;;0.60;0.30;;;14.60;99.90;;;;;;4909752;29;21033;-74
2023/04/29 16:19:15;;;;;;;0.60;0.20;;;14.60;99.90;;;;;;4910751;29;20546;-75
2023/04/29 16:21:44;;;;;;;0.60;0.20;;;14.60;99.90;;;;;;4904392;29;20450;-74
2023/04/29 16:24:12;;;;;;;0.60;0.30;;;14.50;99.90;;;;;;4910227;29;20499;-75
2023/04/29 16:26:41;;;;;;;0.60;0.10;;;14.50;99.90;;;;;;4916485;29;20795;-75
2023/04/29 16:29:11;;;;;;;0.60;0.10;;;14.50;99.90;;;;;;4917809;29;20444;-76
2023/04/29 16:31:39;;;;;;;1.17;0.57;;;14.50;99.90;;;;;;4916979;29;20572;-75
2023/04/29 16:34:07;;;;;;;2.10;0.77;;;14.50;99.90;;;;;;4916898;29;20479;-75
2023/04/29 16:36:36;;;;;;;0.60;0.10;;;14.50;99.90;;;;;;4915444;29;20441;-76
2023/04/29 16:39:04;;;;;;;0.60;0.10;;;14.50;99.90;;;;;;4915396;29;20778;-75
2023/04/29 16:41:33;;;;;;;0.60;0.20;;;14.50;99.90;;;;;;4902820;29;20448;-75
2023/04/29 16:44:03;;;;;;;0.60;0.10;;;14.60;99.90;;;;;;4916598;29;21013;-75
2023/04/29 16:46:32;;;;;;;0.60;0.20;;;14.50;99.90;;;;;;4917596;29;20451;-75
2023/04/29 16:49:00;;;;;;;0.60;0.10;;;14.60;99.90;;;;;;4902368;29;20875;-75
2023/04/29 16:51:28;;;;;;;1.90;1.80;;;14.60;99.90;;;;;;4909462;29;20857;-75
2023/04/29 16:53:56;;;;;;;0.60;0.10;;;14.60;99.90;;;;;;4912635;29;20478;-75
2023/04/29 16:56:24;;;;;;;0.60;0.10;;;14.60;99.90;;;;;;4905745;29;20482;-75
2023/04/29 16:58:52;;;;;;;0.60;0.10;;;14.50;99.90;;;;;;4909557;29;20451;-74
2023/04/29 17:01:21;;;;;;;0.60;0.20;;;14.50;99.90;;;;;;4914654;29;20817;-75
2023/04/29 17:03:50;;;;;;;0.60;0.10;;;14.50;99.90;;;;;;4917565;23;20558;-75
2023/04/29 17:06:18;;;;;;;0.60;0.10;;;14.60;99.90;;;;;;4899591;29;20463;-75
2023/04/29 17:08:46;;;;;;;0.60;0.10;;;14.60;99.90;;;;;;4899352;29;20454;-75
2023/04/29 17:11:18;;;;;;;0.60;0.20;;;14.60;99.90;;;;;;4898530;29;20495;-74